Terminal Aerodrome Forecast
Issued by NWS

Home | Current Version | Previous Version | Text Only | Print | Product List | Glossary Off
Versions: 1 2 3 4 5 6 7 8 9 10 11 12 13 14 15 16 17 18 19 20 21 22

000
FTUS43 KBIS 281700
TAFMOT
TAF
KMOT 281739Z 2818/2918 21007KT P6SM SCT090
     FM290400 21006KT P6SM SCT080
     FM291000 28010KT P6SM SCT010 BKN080
     FM291400 32013KT P6SM SCT012 BKN080=

USA.gov is the U.S. government's official web portal to all federal, state and local government web resources and services.